world map with HSK marked

HSK - Airport

This information may not be accurate or current and is not valid for navigation or flight planning. No warranty of fitness for any purpose is made or implied.

flag of Aragónflag of Spain

Donate via PayPal

Additional information is available on the NEW Great Circle Mapper

Location
City:  Huesca, Aragón, Spain
Name:Huesca-Pirineos (Guadasespe)
ICAO / IATA:LEHC / HSK

Details
Type:Airport (Aerodrome, Airfield)
Latitude:42°04'51"N (42.080927)
Longitude:0°19'24"W (-0.323468)
Elevation:1769 ft (539 m)
Runways:2
Longest:6890 × 148 ft (2100 × 45 m)

Weather
METAR:LEHC  041400Z VRB02KT CAVOK 10/M03 Q1024
TAF:LEHC  040800Z 0409/0509 VRB05KT 9999 FEW040 TX11/0414Z TN04/0506Z BECMG 0417/0419 30009KT PROB40 TEMPO 0418/0502 4000 RA BKN030

Related Locations
Nearby:
Farthest:NZFT: 12240 mi / 19698 km
Flat Point, WGN, NZ

Find:

   beyond  
but within

Other Information
Maps:
Sources:

  


 


Great Circle Mapper   Great Circle Mapper
Great Circle Mapper FAQ   Great Circle Mapper FAQ
  Karl's Home Page
KLS˛   KLS˛ Home
   GC on Facebook
Airlines of the World   Airlines of the World
Donate via PayPal


Copyright © 2004-2019, Karl L. Swartz. All rights reserved.
All trademarks mentioned herein belong to their respective owners.

Please see credits for attribution and copyright information.

Karl Swartz <karl@kls2.com>
  Powered by FreeBSD
Valid HTML 4.01!
Labeled with ICRA
hCard Microformat
Geo Microformat